createdAt,value
2019-04-20T00:02:24.002Z,9.9
2019-04-20T00:07:29.896Z,10
2019-04-20T00:12:36.409Z,10.1
2019-04-20T00:17:30.675Z,10.1
2019-04-20T00:22:39.241Z,9.9
2019-04-20T00:27:55.318Z,9.7
2019-04-20T00:32:53.170Z,9.6
2019-04-20T00:37:40.359Z,9.4
2019-04-20T00:42:48.764Z,9.4
2019-04-20T00:47:54.135Z,9.4
2019-04-20T00:52:58.935Z,9.3
2019-04-20T00:57:55.171Z,9.2
2019-04-20T01:03:09.417Z,9.1
2019-04-20T01:07:58.464Z,9
2019-04-20T01:13:04.144Z,8.8
2019-04-20T01:17:59.732Z,8.8
2019-04-20T01:23:07.328Z,8.7
2019-04-20T01:28:17.457Z,8.6
2019-04-20T01:33:20.989Z,8.5
2019-04-20T01:38:25.917Z,8.4
2019-04-20T01:43:12.279Z,8.4
2019-04-20T01:48:21.703Z,8.4
2019-04-20T01:53:26.243Z,8.3
2019-04-20T01:58:51.926Z,8.2
2019-04-20T02:03:28.991Z,8.2
2019-04-20T02:08:26.259Z,8.1
2019-04-20T02:13:34.533Z,8.1
2019-04-20T02:18:39.858Z,8
2019-04-20T02:23:40.606Z,8
2019-04-20T02:29:00.361Z,7.9
2019-04-20T02:34:03.300Z,7.8
2019-04-20T02:49:28.934Z,7.6
2019-04-20T02:54:24.371Z,7.5
2019-04-20T02:59:46.774Z,7.5
2019-04-20T03:03:55.880Z,7.4
2019-04-20T03:09:14.979Z,7.3
2019-04-20T03:14:13.366Z,7.2
2019-04-20T03:19:15.821Z,7.2
2019-04-20T03:24:26.428Z,7.1
2019-04-20T03:29:15.752Z,7.1
2019-04-20T03:39:28.321Z,6.9
2019-04-20T03:44:14.059Z,6.9
2019-04-20T03:49:37.712Z,6.8
2019-04-20T03:54:28.154Z,6.7
2019-04-20T03:59:36.632Z,6.7
2019-04-20T04:04:38.068Z,6.6
2019-04-20T04:09:32.388Z,6.6
2019-04-20T04:14:26.044Z,6.5
2019-04-20T04:19:31.579Z,6.5
2019-04-20T04:24:39.283Z,6.5
2019-04-20T04:29:50.435Z,6.5
2019-04-20T04:34:48.451Z,6.5
2019-04-20T04:39:58.587Z,6.5
2019-04-20T04:44:50.232Z,6.5
2019-04-20T04:49:44.667Z,6.6
2019-04-20T04:54:53.595Z,6.6
2019-04-20T04:59:47.117Z,6.7
2019-04-20T05:05:09.933Z,6.8
2019-04-20T05:09:52.839Z,7
2019-04-20T05:15:05.076Z,7.1
2019-04-20T05:20:13.058Z,7.2
2019-04-20T05:25:17.055Z,7.3
2019-04-20T05:30:01.847Z,7.4
2019-04-20T05:35:26.261Z,7.6
2019-04-20T05:40:26.048Z,7.8
2019-04-20T05:45:24.357Z,7.9
2019-04-20T05:50:30.090Z,8
2019-04-20T05:55:32.860Z,8.2
2019-04-20T06:00:40.038Z,8.3
2019-04-20T06:05:44.749Z,8.4
2019-04-20T06:10:44.805Z,8.6
2019-04-20T06:15:42.665Z,8.7
2019-04-20T06:20:40.926Z,8.8
2019-04-20T06:26:03.434Z,8.9
2019-04-20T06:30:46.771Z,9
2019-04-20T06:36:07.221Z,9.1
2019-04-20T06:41:04.837Z,9.2
2019-04-20T06:50:56.436Z,9.5
2019-04-20T06:56:09.414Z,9.6
2019-04-20T07:01:05.451Z,9.7
2019-04-20T07:06:28.290Z,9.8
2019-04-20T07:16:13.365Z,10
2019-04-20T07:21:20.669Z,10.2
2019-04-20T07:26:22.058Z,10.3
2019-04-20T07:31:17.991Z,10.5
2019-04-20T07:36:24.061Z,10.6
2019-04-20T07:41:32.725Z,10.7
2019-04-20T07:46:40.529Z,10.8
2019-04-20T07:51:16.065Z,10.9
2019-04-20T07:56:36.877Z,11
2019-04-20T08:01:44.722Z,11.2
2019-04-20T08:06:24.712Z,11.3
2019-04-20T08:11:37.793Z,11.4
2019-04-20T08:16:58.103Z,11.5
2019-04-20T08:21:47.141Z,11.6
2019-04-20T08:26:32.425Z,11.7
2019-04-20T08:31:39.706Z,11.8
2019-04-20T08:36:50.712Z,11.9
2019-04-20T08:41:55.858Z,12
2019-04-20T08:47:03.343Z,12.2
2019-04-20T08:52:11.221Z,12.3
2019-04-20T08:56:48.726Z,12.5
2019-04-20T09:01:44.596Z,12.6
2019-04-20T09:12:05.755Z,12.9
2019-04-20T09:16:56.908Z,13.1
2019-04-20T09:21:58.606Z,13.2
2019-04-20T09:27:08.526Z,13.4
2019-04-20T09:32:16.645Z,13.5
2019-04-20T09:37:18.751Z,13.7
2019-04-20T09:42:03.714Z,13.8
2019-04-20T09:47:07.161Z,14
2019-04-20T09:52:20.533Z,14.1
2019-04-20T09:57:29.351Z,14.3
2019-04-20T10:02:18.633Z,14.5
2019-04-20T10:07:18.469Z,14.7
2019-04-20T10:12:19.635Z,14.8
2019-04-20T10:17:20.794Z,15.1
2019-04-20T10:22:24.493Z,15.4
2019-04-20T10:27:26.425Z,15.6
2019-04-20T10:32:34.075Z,15.8
2019-04-20T10:37:31.495Z,16.1
2019-04-20T10:42:34.165Z,16.5
2019-04-20T10:47:36.730Z,16.8
2019-04-20T10:52:38.148Z,17.2
2019-04-20T10:57:41.639Z,17.6
2019-04-20T11:02:45.529Z,18
2019-04-20T11:07:46.316Z,18.3
2019-04-20T11:12:48.385Z,18.7
2019-04-20T11:17:51.249Z,18.9
2019-04-20T11:22:52.700Z,19.3
2019-04-20T11:27:56.288Z,19.6
2019-04-20T11:32:58.049Z,19.9
2019-04-20T11:38:00.898Z,20.4
2019-04-20T11:43:03.719Z,20.7
2019-04-20T11:48:05.335Z,21
2019-04-20T11:53:07.424Z,21.1
2019-04-20T11:58:10.062Z,21.1
2019-04-20T12:03:21.738Z,21.4
2019-04-20T12:08:14.500Z,21.6
2019-04-20T12:13:16.940Z,21.7
2019-04-20T12:18:19.782Z,21.8
2019-04-20T12:23:22.283Z,22
2019-04-20T12:28:25.364Z,22.1
2019-04-20T12:33:26.695Z,22.4
2019-04-20T12:38:29.234Z,22.9
2019-04-20T12:43:31.931Z,23.4
2019-04-20T12:48:34.069Z,23.8
2019-04-20T12:53:36.566Z,24.2
2019-04-20T12:58:41.679Z,24.8
2019-04-20T13:03:41.620Z,25.5
2019-04-20T13:08:47.549Z,25.4
2019-04-20T13:13:46.265Z,25.9
2019-04-20T13:18:48.732Z,26.2
2019-04-20T13:23:51.227Z,26.5
2019-04-20T13:28:54.989Z,26.8
2019-04-20T13:33:57.132Z,27.6
2019-04-20T13:38:59.540Z,28.2
2019-04-20T13:44:01.828Z,28.8
2019-04-20T13:49:03.387Z,29.5
2019-04-20T13:54:12.998Z,29.6
2019-04-20T13:59:08.215Z,30
2019-04-20T14:04:10.820Z,30.1
2019-04-20T14:09:13.110Z,30.5
2019-04-20T14:14:17.072Z,31.3
2019-04-20T14:19:18.920Z,31.7
2019-04-20T14:24:21.284Z,32
2019-04-20T14:29:23.119Z,31.9
2019-04-20T14:34:25.355Z,32.2
2019-04-20T14:39:28.034Z,32.8
2019-04-20T14:44:30.204Z,33.1
2019-04-20T14:49:32.725Z,33.6
2019-04-20T14:54:35.182Z,34.3
2019-04-20T14:59:37.830Z,34.6
2019-04-20T15:04:41.209Z,35.2
2019-04-20T15:09:42.855Z,35.5
2019-04-20T15:14:45.113Z,35.5
2019-04-20T15:19:47.628Z,35.6
2019-04-20T15:24:49.820Z,35.9
2019-04-20T15:29:52.174Z,35.6
2019-04-20T15:34:55.043Z,35.4
2019-04-20T15:39:57.358Z,35.9
2019-04-20T15:45:00.819Z,36.4
2019-04-20T15:50:02.362Z,36.2
2019-04-20T15:55:10.035Z,36.1
2019-04-20T16:00:06.928Z,36.1
2019-04-20T16:10:12.936Z,35.5
2019-04-20T16:15:15.653Z,35.2
2019-04-20T16:20:20.012Z,35.1
2019-04-20T16:25:19.456Z,34.8
2019-04-20T16:30:21.549Z,32.7
2019-04-20T16:35:24.558Z,30.7
2019-04-20T16:40:27.289Z,29
2019-04-20T16:45:29.523Z,27.1
2019-04-20T16:50:31.259Z,25.2
2019-04-20T16:55:34.834Z,23.9
2019-04-20T17:00:36.262Z,22.8
2019-04-20T17:05:39.077Z,22.1
2019-04-20T17:10:41.233Z,21.6
2019-04-20T17:15:43.516Z,21.1
2019-04-20T17:20:46.411Z,20.7
2019-04-20T17:25:48.354Z,20.3
2019-04-20T17:30:52.743Z,19.9
2019-04-20T17:36:03.219Z,19.6
2019-04-20T17:41:12.504Z,19.2
2019-04-20T17:46:07.741Z,18.9
2019-04-20T17:51:22.211Z,18.6
2019-04-20T18:01:20.199Z,18.1
2019-04-20T18:06:25.179Z,17.9
2019-04-20T18:11:16.519Z,17.6
2019-04-20T18:16:35.185Z,17.3
2019-04-20T18:21:16.872Z,17.1
2019-04-20T18:31:21.635Z,16.6
2019-04-20T18:36:28.752Z,16.5
2019-04-20T18:41:33.774Z,16.3
2019-04-20T18:46:49.197Z,16.1
2019-04-20T18:51:30.044Z,15.9
2019-04-20T18:56:36.497Z,15.8
2019-04-20T19:01:38.342Z,15.7
2019-04-20T19:06:38.083Z,15.7
2019-04-20T19:11:43.086Z,15.5
2019-04-20T19:16:55.239Z,15.4
2019-04-20T19:21:45.836Z,15.3
2019-04-20T19:26:51.366Z,15
2019-04-20T19:32:07.165Z,14.8
2019-04-20T19:37:03.453Z,14.6
2019-04-20T19:42:07.737Z,14.5
2019-04-20T19:47:15.215Z,14.4
2019-04-20T19:57:21.869Z,14.1
2019-04-20T20:02:05.420Z,14
2019-04-20T20:07:15.422Z,13.8
2019-04-20T20:12:12.930Z,13.7
2019-04-20T20:17:32.462Z,13.6
2019-04-20T20:22:24.938Z,13.5
2019-04-20T20:27:23.907Z,13.3
2019-04-20T20:32:28.450Z,13.2
2019-04-20T20:37:33.592Z,13.1
2019-04-20T20:42:32.834Z,12.9
2019-04-20T20:47:58.814Z,12.8
2019-04-20T20:52:42.797Z,12.7
2019-04-20T20:57:40.769Z,12.6
2019-04-20T21:02:41.872Z,12.4
2019-04-20T21:07:36.492Z,12.3
2019-04-20T21:12:43.461Z,12.1
2019-04-20T21:18:05.109Z,12
2019-04-20T21:22:58.239Z,11.9
2019-04-20T21:27:46.582Z,11.8
2019-04-20T21:32:50.658Z,11.7
2019-04-20T21:37:56.674Z,11.6
2019-04-20T21:42:59.135Z,11.5
2019-04-20T21:47:56.465Z,11.4
2019-04-20T21:53:04.434Z,11.3
2019-04-20T21:58:02.161Z,11.2
2019-04-20T22:03:06.194Z,11.1
2019-04-20T22:08:08.930Z,11
2019-04-20T22:13:14.012Z,10.9
2019-04-20T22:18:14.590Z,10.9
2019-04-20T22:23:29.976Z,10.8
2019-04-20T22:28:16.008Z,10.7
2019-04-20T22:33:23.469Z,10.7
2019-04-20T22:38:20.563Z,10.6
2019-04-20T22:43:25.834Z,10.4
2019-04-20T22:48:25.063Z,10.3
2019-04-20T22:53:38.438Z,10.2
2019-04-20T22:58:43.101Z,10
2019-04-20T23:03:32.657Z,10
2019-04-20T23:08:34.990Z,9.8
2019-04-20T23:13:41.650Z,9.8
2019-04-20T23:18:40.285Z,9.7
2019-04-20T23:23:41.648Z,9.6
2019-04-20T23:28:48.041Z,9.5
2019-04-20T23:33:47.732Z,9.4
2019-04-20T23:38:52.612Z,9.3
2019-04-20T23:43:53.904Z,9.2
2019-04-20T23:48:54.222Z,9.1
2019-04-20T23:54:05.869Z,9
2019-04-20T23:58:59.765Z,9
